createdAt,value
2022-08-23T00:02:28.626Z,6.95
2022-08-23T00:05:07.438Z,3.80
2022-08-23T00:07:43.900Z,4.78
2022-08-23T00:10:14.991Z,3.80
2022-08-23T00:12:44.833Z,4.63
2022-08-23T00:15:15.261Z,6.80
2022-08-23T00:17:42.915Z,5.50
2022-08-23T00:20:13.678Z,2.95
2022-08-23T00:22:41.256Z,6.05
2022-08-23T00:25:11.325Z,3.92
2022-08-23T00:27:39.300Z,9.07
2022-08-23T00:30:09.619Z,5.05
2022-08-23T00:32:38.696Z,2.83
2022-08-23T00:35:07.624Z,2.70
2022-08-23T00:37:35.765Z,2.67
2022-08-23T00:40:04.987Z,4.50
2022-08-23T00:43:01.349Z,4.45
2022-08-23T00:46:04.345Z,3.67
2022-08-23T00:48:33.522Z,3.05
2022-08-23T00:51:04.689Z,3.50
2022-08-23T00:53:38.244Z,4.97
2022-08-23T00:56:09.168Z,6.43
2022-08-23T00:58:37.163Z,6.18
2022-08-23T01:01:07.031Z,6.43
2022-08-23T01:03:38.497Z,7.60
2022-08-23T01:06:16.335Z,5.63
2022-08-23T01:08:49.935Z,4.43
2022-08-23T01:11:27.387Z,2.83
2022-08-23T01:14:03.506Z,8.00
2022-08-23T01:16:38.393Z,4.18
2022-08-23T01:19:13.043Z,3.47
2022-08-23T01:22:08.401Z,5.85
2022-08-23T01:25:06.264Z,4.78
2022-08-23T01:27:25.745Z,4.20
2022-08-23T01:29:53.285Z,4.63
2022-08-23T01:32:21.104Z,3.42
2022-08-23T01:34:51.982Z,3.28
2022-08-23T01:37:21.409Z,3.95
2022-08-23T01:39:49.911Z,4.22
2022-08-23T01:42:17.581Z,6.60
2022-08-23T01:44:45.084Z,3.78
2022-08-23T01:47:12.374Z,5.75
2022-08-23T01:49:39.871Z,3.38
2022-08-23T01:52:07.481Z,3.88
2022-08-23T01:54:34.966Z,7.40
2022-08-23T01:57:02.567Z,3.10
2022-08-23T01:59:30.178Z,5.97
2022-08-23T02:01:59.324Z,8.35
2022-08-23T02:04:27.808Z,5.53
2022-08-23T02:06:55.307Z,4.63
2022-08-23T02:09:25.729Z,5.05
2022-08-23T02:11:57.277Z,9.20
2022-08-23T02:14:24.790Z,4.82
2022-08-23T02:17:02.910Z,3.67
2022-08-23T02:19:33.416Z,3.97
2022-08-23T02:22:01.131Z,4.32
2022-08-23T02:24:29.055Z,4.57
2022-08-23T02:27:00.020Z,5.15
2022-08-23T02:29:29.963Z,7.40
2022-08-23T02:32:01.153Z,5.30
2022-08-23T02:34:29.236Z,5.90
2022-08-23T02:36:57.035Z,4.43
2022-08-23T02:39:26.098Z,6.35
2022-08-23T02:41:53.741Z,4.85
2022-08-23T02:44:21.922Z,10.27
2022-08-23T02:46:49.472Z,6.85
2022-08-23T02:49:17.358Z,6.70
2022-08-23T02:51:45.487Z,9.02
2022-08-23T02:54:13.231Z,8.07
2022-08-23T02:56:40.643Z,4.78
2022-08-23T02:59:09.066Z,5.75
2022-08-23T03:01:38.598Z,6.93
2022-08-23T03:04:29.842Z,7.00
2022-08-23T03:06:57.288Z,4.43
2022-08-23T03:09:25.524Z,6.50
2022-08-23T03:11:53.084Z,5.97
2022-08-23T03:14:22.465Z,6.80
2022-08-23T03:16:50.083Z,6.80
2022-08-23T03:19:17.887Z,7.55
2022-08-23T03:21:45.800Z,4.78
2022-08-23T03:24:15.734Z,7.78
2022-08-23T03:26:46.064Z,3.30
2022-08-23T03:29:15.989Z,7.00
2022-08-23T03:32:04.524Z,8.10
2022-08-23T03:34:35.957Z,7.13
2022-08-23T03:37:07.685Z,6.97
2022-08-23T03:39:36.411Z,4.00
2022-08-23T03:42:04.238Z,6.35
2022-08-23T03:44:34.357Z,7.18
2022-08-23T03:47:02.567Z,7.68
2022-08-23T03:49:30.207Z,9.88
2022-08-23T03:52:00.438Z,7.32
2022-08-23T03:54:30.990Z,10.15
2022-08-23T03:57:09.490Z,6.25
2022-08-23T03:59:39.918Z,6.53
2022-08-23T04:02:11.378Z,5.88
2022-08-23T04:04:39.661Z,7.35
2022-08-23T04:07:30.800Z,7.13
2022-08-23T04:09:59.126Z,11.98
2022-08-23T04:12:31.887Z,11.25
2022-08-23T04:14:59.469Z,6.05
2022-08-23T04:17:27.267Z,7.53
2022-08-23T04:19:55.130Z,9.18
2022-08-23T04:22:23.360Z,7.75
2022-08-23T04:24:51.172Z,4.90
2022-08-23T04:27:18.911Z,11.45
2022-08-23T04:29:47.944Z,7.30
2022-08-23T04:32:25.964Z,11.98
2022-08-23T04:34:57.918Z,18.70
2022-08-23T04:37:26.460Z,16.63
2022-08-23T04:40:12.793Z,14.38
2022-08-23T04:42:43.936Z,22.05
2022-08-23T04:45:12.623Z,17.98
2022-08-23T04:47:45.460Z,31.80
2022-08-23T04:50:13.394Z,25.10
2022-08-23T04:53:00.109Z,18.77
2022-08-23T04:55:29.107Z,14.70
2022-08-23T04:58:08.108Z,16.38
2022-08-23T05:00:48.199Z,11.43
2022-08-23T05:03:21.485Z,7.53
2022-08-23T05:05:49.108Z,6.07
2022-08-23T05:08:19.004Z,7.82
2022-08-23T05:10:47.426Z,11.68
2022-08-23T05:13:15.655Z,9.55
2022-08-23T05:15:44.426Z,6.60
2022-08-23T05:18:12.902Z,8.35
2022-08-23T05:20:41.608Z,10.00
2022-08-23T05:23:09.101Z,5.63
2022-08-23T05:25:51.553Z,8.40
2022-08-23T05:28:36.181Z,7.05
2022-08-23T05:31:11.670Z,7.40
2022-08-23T05:33:50.199Z,10.68
2022-08-23T05:36:24.170Z,5.28
2022-08-23T05:38:53.464Z,4.85
2022-08-23T05:41:22.030Z,9.80
2022-08-23T05:43:56.896Z,6.35
2022-08-23T05:46:26.621Z,7.18
2022-08-23T05:49:17.574Z,7.72
2022-08-23T05:51:51.644Z,5.22
2022-08-23T05:54:20.430Z,7.55
2022-08-23T05:56:59.326Z,11.50
2022-08-23T05:59:27.013Z,11.68
2022-08-23T06:01:54.960Z,9.02
2022-08-23T06:04:23.747Z,9.50
2022-08-23T06:06:51.229Z,10.93
2022-08-23T06:09:19.528Z,8.07
2022-08-23T06:11:48.131Z,9.30
2022-08-23T06:14:16.865Z,11.25
2022-08-23T06:16:47.652Z,11.48
2022-08-23T06:19:19.700Z,10.18
2022-08-23T06:21:51.453Z,10.32
2022-08-23T06:24:27.000Z,7.85
2022-08-23T06:27:01.450Z,16.88
2022-08-23T06:29:29.513Z,17.20
2022-08-23T06:32:17.122Z,12.43
2022-08-23T06:35:32.858Z,10.15
2022-08-23T06:37:56.953Z,14.73
2022-08-23T06:40:48.286Z,11.35
2022-08-23T06:43:29.530Z,12.10
2022-08-23T06:46:28.432Z,9.40
2022-08-23T06:48:58.269Z,11.38
2022-08-23T06:51:29.938Z,17.25
2022-08-23T06:54:09.349Z,18.02
2022-08-23T06:57:00.465Z,9.55
2022-08-23T06:59:32.121Z,11.68
2022-08-23T07:02:15.760Z,17.30
2022-08-23T07:05:16.522Z,13.02
2022-08-23T07:07:52.509Z,9.32
2022-08-23T07:10:20.380Z,16.38
2022-08-23T07:12:48.722Z,12.85
2022-08-23T07:15:19.117Z,8.93
2022-08-23T07:17:47.917Z,9.77
2022-08-23T07:20:15.763Z,35.10
2022-08-23T07:22:45.128Z,12.65
2022-08-23T07:25:13.698Z,13.38
2022-08-23T07:27:45.078Z,12.30
2022-08-23T07:30:14.541Z,17.58
2022-08-23T07:32:42.508Z,9.73
2022-08-23T07:35:22.600Z,12.00
2022-08-23T07:37:53.122Z,14.73
2022-08-23T07:40:21.301Z,17.33
2022-08-23T07:42:57.102Z,15.95
2022-08-23T07:45:25.118Z,13.50
2022-08-23T07:47:57.134Z,10.93
2022-08-23T07:50:37.117Z,12.02
2022-08-23T07:53:37.363Z,13.85
2022-08-23T07:56:10.082Z,16.85
2022-08-23T07:58:56.997Z,15.55
2022-08-23T08:01:34.484Z,16.27
2022-08-23T08:04:04.012Z,12.00
2022-08-23T08:06:38.886Z,9.07
2022-08-23T08:09:08.168Z,15.32
2022-08-23T08:11:37.042Z,12.13
2022-08-23T08:14:07.928Z,15.18
2022-08-23T08:16:46.876Z,14.07
2022-08-23T08:19:21.092Z,14.15
2022-08-23T08:22:28.906Z,16.98
2022-08-23T08:25:12.369Z,12.20
2022-08-23T08:27:42.689Z,12.38
2022-08-23T08:30:12.644Z,18.70
2022-08-23T08:32:47.351Z,18.45
2022-08-23T08:35:16.167Z,28.02
2022-08-23T08:37:44.260Z,18.95
2022-08-23T08:40:12.067Z,14.38
2022-08-23T08:43:05.805Z,13.77
2022-08-23T08:45:58.693Z,16.90
2022-08-23T08:48:30.947Z,15.57
2022-08-23T08:51:03.819Z,17.63
2022-08-23T08:53:38.934Z,19.33
2022-08-23T08:56:32.413Z,21.70
2022-08-23T08:59:40.298Z,22.48
2022-08-23T09:02:22.151Z,17.10
2022-08-23T09:05:03.834Z,19.77
2022-08-23T09:07:46.586Z,22.88
2022-08-23T09:10:34.996Z,22.40
2022-08-23T09:13:46.355Z,21.92
2022-08-23T09:16:35.917Z,27.70
2022-08-23T09:19:04.645Z,19.92
2022-08-23T09:21:48.368Z,26.42
2022-08-23T09:24:17.074Z,17.50
2022-08-23T09:27:05.694Z,20.20
2022-08-23T09:29:37.138Z,20.83
2022-08-23T09:32:24.600Z,19.60
2022-08-23T09:34:52.977Z,15.18
2022-08-23T09:37:24.268Z,22.75
2022-08-23T09:40:13.918Z,24.27
2022-08-23T09:42:42.136Z,18.50
2022-08-23T09:45:35.597Z,26.85
2022-08-23T09:48:06.483Z,16.67
2022-08-23T09:50:47.952Z,20.75
2022-08-23T09:53:27.353Z,14.10
2022-08-23T09:55:59.015Z,22.73
2022-08-23T09:58:50.741Z,17.73
2022-08-23T10:01:27.845Z,17.02
2022-08-23T10:04:23.124Z,19.27
2022-08-23T10:06:53.232Z,15.13
2022-08-23T10:09:34.033Z,25.00
2022-08-23T10:12:07.108Z,11.90
2022-08-23T10:14:35.590Z,17.42
2022-08-23T10:17:15.440Z,11.90
2022-08-23T10:20:02.059Z,11.70
2022-08-23T10:22:45.323Z,12.90
2022-08-23T10:25:43.270Z,19.40
2022-08-23T10:29:00.485Z,17.80
2022-08-23T10:31:31.447Z,47.13
2022-08-23T10:34:07.172Z,41.33
2022-08-23T10:36:43.125Z,12.88
2022-08-23T10:39:27.654Z,15.32
2022-08-23T10:42:12.425Z,18.05
2022-08-23T10:45:07.374Z,20.92
2022-08-23T10:47:38.941Z,17.20
2022-08-23T10:50:13.220Z,19.15
2022-08-23T10:52:56.870Z,20.92
2022-08-23T10:55:36.867Z,14.27
2022-08-23T10:58:11.817Z,20.00
2022-08-23T11:00:41.426Z,30.77
2022-08-23T11:03:17.569Z,21.48
2022-08-23T11:06:23.414Z,31.05
2022-08-23T11:09:18.697Z,18.58
2022-08-23T11:12:08.364Z,18.48
2022-08-23T11:15:08.108Z,16.33
2022-08-23T11:17:49.723Z,17.60
2022-08-23T11:20:52.263Z,18.13
2022-08-23T11:23:54.624Z,17.42
2022-08-23T11:26:22.983Z,19.25
2022-08-23T11:28:52.306Z,18.83
2022-08-23T11:31:30.552Z,15.93
2022-08-23T11:34:03.765Z,12.88
2022-08-23T11:36:34.032Z,18.98
2022-08-23T11:39:15.820Z,19.88
2022-08-23T11:41:56.594Z,17.02
2022-08-23T11:44:48.357Z,16.15
2022-08-23T11:47:47.218Z,21.42
2022-08-23T11:50:25.111Z,15.73
2022-08-23T11:53:08.297Z,10.73
2022-08-23T11:56:10.462Z,15.80
2022-08-23T11:59:31.457Z,19.70
2022-08-23T12:01:59.559Z,16.23
2022-08-23T12:04:37.998Z,22.38
2022-08-23T12:07:12.848Z,15.95
2022-08-23T12:09:40.198Z,15.77
2022-08-23T12:12:34.696Z,16.23
2022-08-23T12:15:09.376Z,20.42
2022-08-23T12:17:40.611Z,11.63
2022-08-23T12:20:16.385Z,22.20
2022-08-23T12:23:08.086Z,15.55
2022-08-23T12:25:37.588Z,17.23
2022-08-23T12:28:18.000Z,19.65
2022-08-23T12:31:19.403Z,24.50
2022-08-23T12:33:55.599Z,20.63
2022-08-23T12:36:46.395Z,17.48
2022-08-23T12:39:22.670Z,25.05
2022-08-23T12:42:15.909Z,22.23
2022-08-23T12:44:46.063Z,17.65
2022-08-23T12:47:18.543Z,20.17
2022-08-23T12:50:09.446Z,20.27
2022-08-23T12:52:38.043Z,19.98
2022-08-23T12:55:18.706Z,22.40
2022-08-23T12:57:55.439Z,18.95
2022-08-23T13:00:34.711Z,15.13
2022-08-23T13:03:15.873Z,12.63
2022-08-23T13:05:53.478Z,22.25
2022-08-23T13:08:33.610Z,18.80
2022-08-23T13:11:08.058Z,17.27
2022-08-23T13:13:39.901Z,24.98
2022-08-23T13:16:37.825Z,27.50
2022-08-23T13:19:23.444Z,19.70
2022-08-23T13:22:10.913Z,24.83
2022-08-23T13:25:28.591Z,19.00
2022-08-23T13:27:55.599Z,26.30
2022-08-23T13:30:25.988Z,19.40
2022-08-23T13:33:14.524Z,24.05
2022-08-23T13:35:48.688Z,27.38
2022-08-23T13:38:26.357Z,23.58
2022-08-23T13:41:10.944Z,19.65
2022-08-23T13:43:51.286Z,25.10
2022-08-23T13:46:22.506Z,24.23
2022-08-23T13:49:13.336Z,20.55
2022-08-23T13:51:43.744Z,19.60
2022-08-23T13:54:15.853Z,22.67
2022-08-23T13:56:55.128Z,17.02
2022-08-23T13:59:31.540Z,26.83
2022-08-23T14:02:02.367Z,23.20
2022-08-23T14:04:30.528Z,17.05
2022-08-23T14:06:58.087Z,22.60
2022-08-23T14:09:25.537Z,22.80
2022-08-23T14:11:57.613Z,28.73
2022-08-23T14:14:26.118Z,17.52
2022-08-23T14:16:56.160Z,21.38
2022-08-23T14:22:14.781Z,21.30
2022-08-23T14:24:43.636Z,20.45
2022-08-23T14:27:13.117Z,19.33
2022-08-23T14:29:40.888Z,18.00
2022-08-23T14:32:08.306Z,13.57
2022-08-23T14:34:35.868Z,24.98
2022-08-23T14:39:51.418Z,19.45
2022-08-23T14:42:22.047Z,23.17
2022-08-23T14:44:50.088Z,32.30
2022-08-23T14:47:18.836Z,19.02
2022-08-23T14:49:49.860Z,24.63
2022-08-23T14:52:19.598Z,17.20
2022-08-23T14:54:47.389Z,24.98
2022-08-23T14:57:15.631Z,18.25
2022-08-23T14:59:43.203Z,15.75
2022-08-23T15:02:13.869Z,25.48
2022-08-23T15:04:42.427Z,22.83
2022-08-23T15:07:18.839Z,28.48
2022-08-23T15:09:54.692Z,22.70
2022-08-23T15:15:16.110Z,20.02
2022-08-23T15:17:58.139Z,18.38
2022-08-23T15:20:29.516Z,22.83
2022-08-23T15:22:57.829Z,21.92
2022-08-23T15:25:29.968Z,23.30
2022-08-23T15:27:58.184Z,16.65
2022-08-23T15:30:26.293Z,18.75
2022-08-23T15:32:58.202Z,18.45
2022-08-23T15:35:27.538Z,20.23
2022-08-23T15:37:56.753Z,19.60
2022-08-23T15:40:26.250Z,20.13
2022-08-23T15:42:54.517Z,14.55
2022-08-23T15:45:22.287Z,18.17
2022-08-23T15:47:54.516Z,23.40
2022-08-23T15:50:26.459Z,18.77
2022-08-23T15:52:55.557Z,24.23
2022-08-23T15:55:28.242Z,23.02
2022-08-23T15:57:58.640Z,20.17
2022-08-23T16:00:27.498Z,16.42
2022-08-23T16:03:28.001Z,24.73
2022-08-23T16:05:52.024Z,19.13
2022-08-23T16:08:34.409Z,24.23
2022-08-23T16:11:10.769Z,20.58
2022-08-23T16:13:47.075Z,16.02
2022-08-23T16:16:25.188Z,21.90
2022-08-23T16:18:54.770Z,18.58
2022-08-23T16:21:25.548Z,12.48
2022-08-23T16:23:55.185Z,15.52
2022-08-23T16:26:34.629Z,19.15
2022-08-23T16:29:05.507Z,12.60
2022-08-23T16:31:38.307Z,8.98
2022-08-23T16:34:14.203Z,17.13
2022-08-23T16:36:45.917Z,12.65
2022-08-23T16:39:16.138Z,11.02
2022-08-23T16:41:43.818Z,12.40
2022-08-23T16:44:11.569Z,9.90
2022-08-23T16:46:44.508Z,9.52
2022-08-23T16:49:13.997Z,12.82
2022-08-23T16:51:42.734Z,14.13
2022-08-23T16:54:10.871Z,10.20
2022-08-23T16:56:40.514Z,11.00
2022-08-23T16:59:10.846Z,12.77
2022-08-23T17:01:54.600Z,10.32
2022-08-23T17:04:26.652Z,12.32
2022-08-23T17:06:59.814Z,7.88
2022-08-23T17:09:29.430Z,8.55
2022-08-23T17:11:59.111Z,8.80
2022-08-23T17:14:54.212Z,12.57
2022-08-23T17:17:22.391Z,11.63
2022-08-23T17:19:49.774Z,9.90
2022-08-23T17:22:17.724Z,9.95
2022-08-23T17:24:45.719Z,13.45
2022-08-23T17:27:19.254Z,14.85
2022-08-23T17:29:47.683Z,14.93
2022-08-23T17:32:15.021Z,15.98
2022-08-23T17:34:42.942Z,10.10
2022-08-23T17:37:22.173Z,13.20
2022-08-23T17:39:54.195Z,11.30
2022-08-23T17:42:22.447Z,12.20
2022-08-23T17:44:51.733Z,10.02
2022-08-23T17:47:20.094Z,11.43
2022-08-23T17:49:49.603Z,16.65
2022-08-23T17:52:18.286Z,10.70
2022-08-23T17:54:45.890Z,12.27
2022-08-23T17:57:13.968Z,10.93
2022-08-23T17:59:43.433Z,14.48
2022-08-23T18:02:11.007Z,16.75
2022-08-23T18:04:38.942Z,10.48
2022-08-23T18:07:07.630Z,13.73
2022-08-23T18:09:43.769Z,17.63
2022-08-23T18:12:17.278Z,11.77
2022-08-23T18:14:45.089Z,13.05
2022-08-23T18:17:12.505Z,11.00
2022-08-23T18:19:40.317Z,13.57
2022-08-23T18:22:07.897Z,15.07
2022-08-23T18:24:35.409Z,11.20
2022-08-23T18:27:21.785Z,9.90
2022-08-23T18:29:51.756Z,12.75
2022-08-23T18:32:20.797Z,10.40
2022-08-23T18:34:48.669Z,17.23
2022-08-23T18:37:21.919Z,11.52
2022-08-23T18:39:52.428Z,9.63
2022-08-23T18:42:20.577Z,11.45
2022-08-23T18:44:48.532Z,16.40
2022-08-23T18:47:16.796Z,15.38
2022-08-23T18:49:44.693Z,9.07
2022-08-23T18:52:13.068Z,11.05
2022-08-23T18:54:40.967Z,17.08
2022-08-23T18:57:08.795Z,6.95
2022-08-23T18:59:44.726Z,13.13
2022-08-23T19:02:12.543Z,14.50
2022-08-23T19:04:40.538Z,9.63
2022-08-23T19:07:09.022Z,11.90
2022-08-23T19:09:37.244Z,11.48
2022-08-23T19:12:06.796Z,11.90
2022-08-23T19:14:35.863Z,9.07
2022-08-23T19:17:05.861Z,7.20
2022-08-23T19:19:35.419Z,7.97
2022-08-23T19:22:04.616Z,17.52
2022-08-23T19:24:32.482Z,13.25
2022-08-23T19:27:00.733Z,13.15
2022-08-23T19:29:32.055Z,9.88
2022-08-23T19:32:00.136Z,13.82
2022-08-23T19:34:28.461Z,8.23
2022-08-23T19:37:01.266Z,10.38
2022-08-23T19:39:31.151Z,7.00
2022-08-23T19:42:00.032Z,16.52
2022-08-23T19:44:28.440Z,8.85
2022-08-23T19:46:56.481Z,12.57
2022-08-23T19:49:25.539Z,8.35
2022-08-23T19:51:54.776Z,11.77
2022-08-23T19:54:23.581Z,9.18
2022-08-23T19:56:57.884Z,9.23
2022-08-23T19:59:28.540Z,8.85
2022-08-23T20:01:59.652Z,11.43
2022-08-23T20:04:32.684Z,12.45
2022-08-23T20:07:02.803Z,7.80
2022-08-23T20:09:33.265Z,10.10
2022-08-23T20:12:02.011Z,14.40
2022-08-23T20:14:33.939Z,13.00
2022-08-23T20:17:04.846Z,13.40
2022-08-23T20:19:32.886Z,9.43
2022-08-23T20:22:19.695Z,12.30
2022-08-23T20:24:52.211Z,13.02
2022-08-23T20:27:24.148Z,9.45
2022-08-23T20:30:06.834Z,12.93
2022-08-23T20:32:36.237Z,8.40
2022-08-23T20:35:06.501Z,11.70
2022-08-23T20:37:35.578Z,8.80
2022-08-23T20:40:05.048Z,9.60
2022-08-23T20:42:33.747Z,8.63
2022-08-23T20:45:01.960Z,11.70
2022-08-23T20:47:30.138Z,11.05
2022-08-23T20:49:58.547Z,9.63
2022-08-23T20:52:26.634Z,12.55
2022-08-23T20:54:54.714Z,11.65
2022-08-23T20:57:23.672Z,11.85
2022-08-23T20:59:56.876Z,15.48
2022-08-23T21:02:24.651Z,10.00
2022-08-23T21:04:52.714Z,10.52
2022-08-23T21:07:20.669Z,13.20
2022-08-23T21:09:50.821Z,10.52
2022-08-23T21:12:18.774Z,10.55
2022-08-23T21:14:47.368Z,9.38
2022-08-23T21:17:19.507Z,16.25
2022-08-23T21:19:50.019Z,9.68
2022-08-23T21:22:17.809Z,19.20
2022-08-23T21:24:45.250Z,13.65
2022-08-23T21:27:13.649Z,15.05
2022-08-23T21:29:42.927Z,14.52
2022-08-23T21:32:10.714Z,16.02
2022-08-23T21:34:38.052Z,15.50
2022-08-23T21:37:06.101Z,11.88
2022-08-23T21:39:33.539Z,12.05
2022-08-23T21:42:01.842Z,16.33
2022-08-23T21:44:33.654Z,12.02
2022-08-23T21:47:01.039Z,9.20
2022-08-23T21:49:28.458Z,8.07
2022-08-23T21:51:56.662Z,10.75
2022-08-23T21:54:24.805Z,9.82
2022-08-23T21:56:52.609Z,9.73
2022-08-23T21:59:20.270Z,7.97
2022-08-23T22:01:47.886Z,10.70
2022-08-23T22:04:16.175Z,10.27
2022-08-23T22:06:46.454Z,12.23
2022-08-23T22:09:25.715Z,9.20
2022-08-23T22:11:55.652Z,10.23
2022-08-23T22:14:25.155Z,11.38
2022-08-23T22:16:57.194Z,15.85
2022-08-23T22:19:24.773Z,15.40
2022-08-23T22:21:52.937Z,14.70
2022-08-23T22:24:25.448Z,10.50
2022-08-23T22:26:55.223Z,11.65
2022-08-23T22:29:23.052Z,14.55
2022-08-23T22:31:51.446Z,12.32
2022-08-23T22:34:19.069Z,11.70
2022-08-23T22:36:51.638Z,14.73
2022-08-23T22:39:21.389Z,13.63
2022-08-23T22:41:49.768Z,16.38
2022-08-23T22:44:17.667Z,10.30
2022-08-23T22:46:45.086Z,14.50
2022-08-23T22:49:12.765Z,12.45
2022-08-23T22:51:41.809Z,16.05
2022-08-23T22:54:10.993Z,12.63
2022-08-23T22:56:50.830Z,12.15
2022-08-23T22:59:22.147Z,16.10
2022-08-23T23:01:58.061Z,10.95
2022-08-23T23:04:26.777Z,14.90
2022-08-23T23:06:55.097Z,14.77
2022-08-23T23:09:22.940Z,11.95
2022-08-23T23:11:52.905Z,12.15
2022-08-23T23:14:21.368Z,16.42
2022-08-23T23:16:50.119Z,14.38
2022-08-23T23:19:36.967Z,13.35
2022-08-23T23:22:06.602Z,14.38
2022-08-23T23:24:37.517Z,14.35
2022-08-23T23:27:05.791Z,16.95
2022-08-23T23:29:34.904Z,21.00
2022-08-23T23:32:02.402Z,21.83
2022-08-23T23:34:30.104Z,16.77
2022-08-23T23:36:59.120Z,17.90
2022-08-23T23:39:27.387Z,21.00
2022-08-23T23:41:55.437Z,16.92
2022-08-23T23:44:30.778Z,14.38
2022-08-23T23:47:01.573Z,17.67
2022-08-23T23:49:33.111Z,14.18
2022-08-23T23:52:03.634Z,15.25
2022-08-23T23:54:31.994Z,14.70
2022-08-23T23:56:59.392Z,14.82
2022-08-23T23:59:27.575Z,13.77
